sensor_id;sensor_type;location;lat;lon;timestamp;P1;durP1;ratioP1;P2;durP2;ratioP2
17449;SDS011;8842;51.244;7.102;2022-09-09T00:01:23;12.37;;;11.77;;
17449;SDS011;8842;51.244;7.102;2022-09-09T00:06:43;12.40;;;11.80;;
17449;SDS011;8842;51.244;7.102;2022-09-09T00:11:51;12.80;;;12.10;;
17449;SDS011;8842;51.244;7.102;2022-09-09T00:22:16;12.90;;;12.20;;
17449;SDS011;8842;51.244;7.102;2022-09-09T00:32:33;13.10;;;12.40;;
17449;SDS011;8842;51.244;7.102;2022-09-09T00:37:38;13.30;;;12.60;;
17449;SDS011;8842;51.244;7.102;2022-09-09T00:47:55;12.90;;;12.20;;
17449;SDS011;8842;51.244;7.102;2022-09-09T00:58:46;13.47;;;12.77;;
17449;SDS011;8842;51.244;7.102;2022-09-09T01:04:00;13.50;;;12.80;;
17449;SDS011;8842;51.244;7.102;2022-09-09T01:09:11;13.13;;;12.43;;
17449;SDS011;8842;51.244;7.102;2022-09-09T01:14:40;13.40;;;12.70;;
17449;SDS011;8842;51.244;7.102;2022-09-09T01:19:57;13.20;;;12.50;;
17449;SDS011;8842;51.244;7.102;2022-09-09T01:30:25;13.30;;;12.60;;
17449;SDS011;8842;51.244;7.102;2022-09-09T01:40:46;13.30;;;12.60;;
17449;SDS011;8842;51.244;7.102;2022-09-09T01:45:52;13.17;;;12.47;;
17449;SDS011;8842;51.244;7.102;2022-09-09T01:50:58;13.20;;;12.50;;
17449;SDS011;8842;51.244;7.102;2022-09-09T01:56:15;13.57;;;12.87;;
17449;SDS011;8842;51.244;7.102;2022-09-09T02:06:36;13.47;;;12.77;;
17449;SDS011;8842;51.244;7.102;2022-09-09T02:11:43;13.20;;;12.50;;
17449;SDS011;8842;51.244;7.102;2022-09-09T02:16:56;13.50;;;12.80;;
17449;SDS011;8842;51.244;7.102;2022-09-09T02:27:14;13.40;;;12.70;;
17449;SDS011;8842;51.244;7.102;2022-09-09T02:32:21;13.37;;;12.67;;
17449;SDS011;8842;51.244;7.102;2022-09-09T02:37:34;13.37;;;12.67;;
17449;SDS011;8842;51.244;7.102;2022-09-09T02:47:55;13.30;;;12.60;;
17449;SDS011;8842;51.244;7.102;2022-09-09T02:58:17;13.30;;;12.60;;
17449;SDS011;8842;51.244;7.102;2022-09-09T03:08:33;13.67;;;12.97;;
17449;SDS011;8842;51.244;7.102;2022-09-09T03:13:38;13.80;;;13.10;;
17449;SDS011;8842;51.244;7.102;2022-09-09T03:23:59;14.13;;;13.43;;
17449;SDS011;8842;51.244;7.102;2022-09-09T03:34:16;13.90;;;13.20;;
17449;SDS011;8842;51.244;7.102;2022-09-09T03:44:33;14.03;;;13.33;;
17449;SDS011;8842;51.244;7.102;2022-09-09T03:54:50;14.33;;;13.63;;
17449;SDS011;8842;51.244;7.102;2022-09-09T04:05:07;14.53;;;13.80;;
17449;SDS011;8842;51.244;7.102;2022-09-09T04:10:12;14.17;;;13.47;;
17449;SDS011;8842;51.244;7.102;2022-09-09T04:15:33;14.67;;;13.87;;
17449;SDS011;8842;51.244;7.102;2022-09-09T04:25:50;14.47;;;13.67;;
17449;SDS011;8842;51.244;7.102;2022-09-09T04:36:09;14.30;;;13.60;;
17449;SDS011;8842;51.244;7.102;2022-09-09T04:46:24;14.70;;;13.90;;
17449;SDS011;8842;51.244;7.102;2022-09-09T04:56:39;14.60;;;13.80;;
17449;SDS011;8842;51.244;7.102;2022-09-09T05:06:55;14.60;;;13.80;;
17449;SDS011;8842;51.244;7.102;2022-09-09T05:12:00;14.30;;;13.60;;
17449;SDS011;8842;51.244;7.102;2022-09-09T05:22:22;14.23;;;13.53;;
17449;SDS011;8842;51.244;7.102;2022-09-09T05:32:40;13.90;;;13.20;;
17449;SDS011;8842;51.244;7.102;2022-09-09T05:37:46;14.13;;;13.43;;
17449;SDS011;8842;51.244;7.102;2022-09-09T05:48:02;13.67;;;12.97;;
17449;SDS011;8842;51.244;7.102;2022-09-09T05:58:20;14.10;;;13.40;;
17449;SDS011;8842;51.244;7.102;2022-09-09T06:08:39;13.30;;;12.60;;
17449;SDS011;8842;51.244;7.102;2022-09-09T06:13:45;12.70;;;12.00;;
17449;SDS011;8842;51.244;7.102;2022-09-09T06:24:04;12.50;;;11.90;;
17449;SDS011;8842;51.244;7.102;2022-09-09T06:34:20;13.03;;;12.33;;
17449;SDS011;8842;51.244;7.102;2022-09-09T06:39:25;12.00;;;11.40;;
17449;SDS011;8842;51.244;7.102;2022-09-09T06:49:43;11.80;;;11.20;;
17449;SDS011;8842;51.244;7.102;2022-09-09T07:00:08;11.80;;;11.20;;
17449;SDS011;8842;51.244;7.102;2022-09-09T07:05:23;12.00;;;11.40;;
17449;SDS011;8842;51.244;7.102;2022-09-09T07:15:42;11.50;;;10.90;;
17449;SDS011;8842;51.244;7.102;2022-09-09T07:26:06;11.43;;;10.83;;
17449;SDS011;8842;51.244;7.102;2022-09-09T07:36:24;10.23;;;9.73;;
17449;SDS011;8842;51.244;7.102;2022-09-09T07:41:30;10.63;;;10.13;;
17449;SDS011;8842;51.244;7.102;2022-09-09T07:46:37;10.40;;;9.90;;
17449;SDS011;8842;51.244;7.102;2022-09-09T07:51:51;10.20;;;9.70;;
17449;SDS011;8842;51.244;7.102;2022-09-09T07:56:56;10.30;;;9.80;;
17449;SDS011;8842;51.244;7.102;2022-09-09T08:02:08;9.90;;;9.40;;
17449;SDS011;8842;51.244;7.102;2022-09-09T08:12:26;9.00;;;8.60;;
17449;SDS011;8842;51.244;7.102;2022-09-09T08:22:41;8.20;;;7.80;;
17449;SDS011;8842;51.244;7.102;2022-09-09T08:33:00;8.10;;;7.70;;
17449;SDS011;8842;51.244;7.102;2022-09-09T08:43:15;8.50;;;8.10;;
17449;SDS011;8842;51.244;7.102;2022-09-09T08:48:27;8.80;;;8.40;;
17449;SDS011;8842;51.244;7.102;2022-09-09T08:53:50;9.47;;;8.97;;
17449;SDS011;8842;51.244;7.102;2022-09-09T09:04:12;8.97;;;8.57;;
17449;SDS011;8842;51.244;7.102;2022-09-09T09:09:22;8.70;;;8.30;;
17449;SDS011;8842;51.244;7.102;2022-09-09T09:14:37;8.60;;;8.20;;
17449;SDS011;8842;51.244;7.102;2022-09-09T09:19:43;8.97;;;8.57;;
17449;SDS011;8842;51.244;7.102;2022-09-09T09:24:56;9.50;;;9.00;;
17449;SDS011;8842;51.244;7.102;2022-09-09T09:35:16;9.37;;;8.87;;
17449;SDS011;8842;51.244;7.102;2022-09-09T09:40:21;9.13;;;8.70;;
17449;SDS011;8842;51.244;7.102;2022-09-09T09:45:28;9.93;;;9.43;;
17449;SDS011;8842;51.244;7.102;2022-09-09T09:50:34;9.10;;;8.70;;
17449;SDS011;8842;51.244;7.102;2022-09-09T10:00:52;9.30;;;8.80;;
17449;SDS011;8842;51.244;7.102;2022-09-09T10:11:17;9.00;;;8.60;;
17449;SDS011;8842;51.244;7.102;2022-09-09T10:16:38;8.80;;;8.40;;
17449;SDS011;8842;51.244;7.102;2022-09-09T10:27:05;9.40;;;8.90;;
17449;SDS011;8842;51.244;7.102;2022-09-09T10:37:39;7.70;;;7.30;;
17449;SDS011;8842;51.244;7.102;2022-09-09T10:42:50;8.80;;;8.40;;
17449;SDS011;8842;51.244;7.102;2022-09-09T10:53:11;7.85;;;7.45;;
17449;SDS011;8842;51.244;7.102;2022-09-09T11:03:31;9.00;;;8.60;;
17449;SDS011;8842;51.244;7.102;2022-09-09T11:13:52;9.43;;;8.93;;
17449;SDS011;8842;51.244;7.102;2022-09-09T11:19:04;9.50;;;9.00;;
17449;SDS011;8842;51.244;7.102;2022-09-09T11:29:38;8.40;;;8.00;;
17449;SDS011;8842;51.244;7.102;2022-09-09T11:40:20;9.93;;;9.43;;
17449;SDS011;8842;51.244;7.102;2022-09-09T11:50:41;9.80;;;9.30;;
17449;SDS011;8842;51.244;7.102;2022-09-09T12:00:59;9.50;;;9.00;;
17449;SDS011;8842;51.244;7.102;2022-09-09T12:11:26;9.30;;;8.80;;
17449;SDS011;8842;51.244;7.102;2022-09-09T12:16:34;9.10;;;8.70;;
17449;SDS011;8842;51.244;7.102;2022-09-09T12:21:50;10.00;;;9.40;;
17449;SDS011;8842;51.244;7.102;2022-09-09T12:32:15;9.50;;;9.00;;
17449;SDS011;8842;51.244;7.102;2022-09-09T12:37:24;9.50;;;9.00;;
17449;SDS011;8842;51.244;7.102;2022-09-09T12:47:44;10.20;;;9.70;;
17449;SDS011;8842;51.244;7.102;2022-09-09T12:58:04;9.60;;;9.10;;
17449;SDS011;8842;51.244;7.102;2022-09-09T13:08:26;9.60;;;9.10;;
17449;SDS011;8842;51.244;7.102;2022-09-09T13:13:31;9.90;;;9.40;;
17449;SDS011;8842;51.244;7.102;2022-09-09T13:18:46;9.60;;;9.10;;
17449;SDS011;8842;51.244;7.102;2022-09-09T13:29:09;12.20;;;11.60;;
17449;SDS011;8842;51.244;7.102;2022-09-09T13:39:39;11.20;;;10.60;;
17449;SDS011;8842;51.244;7.102;2022-09-09T13:49:54;11.30;;;10.70;;
17449;SDS011;8842;51.244;7.102;2022-09-09T14:00:13;11.43;;;10.83;;
17449;SDS011;8842;51.244;7.102;2022-09-09T14:05:18;11.33;;;10.73;;
17449;SDS011;8842;51.244;7.102;2022-09-09T14:10:30;11.30;;;10.70;;
17449;SDS011;8842;51.244;7.102;2022-09-09T14:20:47;11.10;;;10.50;;
17449;SDS011;8842;51.244;7.102;2022-09-09T14:31:04;11.70;;;11.10;;
17449;SDS011;8842;51.244;7.102;2022-09-09T14:41:28;12.17;;;11.57;;
17449;SDS011;8842;51.244;7.102;2022-09-09T14:46:33;10.50;;;10.00;;
17449;SDS011;8842;51.244;7.102;2022-09-09T14:56:50;11.50;;;10.90;;
17449;SDS011;8842;51.244;7.102;2022-09-09T15:07:08;11.90;;;11.30;;
17449;SDS011;8842;51.244;7.102;2022-09-09T15:12:13;12.03;;;11.43;;
17449;SDS011;8842;51.244;7.102;2022-09-09T15:17:17;11.10;;;10.50;;
17449;SDS011;8842;51.244;7.102;2022-09-09T15:22:23;11.10;;;10.50;;
17449;SDS011;8842;51.244;7.102;2022-09-09T15:32:41;11.50;;;10.90;;
17449;SDS011;8842;51.244;7.102;2022-09-09T15:42:59;12.00;;;11.40;;
17449;SDS011;8842;51.244;7.102;2022-09-09T15:53:18;11.83;;;11.23;;
17449;SDS011;8842;51.244;7.102;2022-09-09T16:03:40;11.60;;;11.00;;
17449;SDS011;8842;51.244;7.102;2022-09-09T16:14:01;11.60;;;11.00;;
17449;SDS011;8842;51.244;7.102;2022-09-09T16:19:13;12.50;;;11.90;;
17449;SDS011;8842;51.244;7.102;2022-09-09T16:29:30;13.47;;;12.77;;
17449;SDS011;8842;51.244;7.102;2022-09-09T16:39:54;14.53;;;13.83;;
17449;SDS011;8842;51.244;7.102;2022-09-09T16:44:59;14.60;;;13.80;;
17449;SDS011;8842;51.244;7.102;2022-09-09T16:55:16;11.70;;;11.10;;
17449;SDS011;8842;51.244;7.102;2022-09-09T17:05:39;11.53;;;10.93;;
17449;SDS011;8842;51.244;7.102;2022-09-09T17:10:44;13.00;;;12.30;;
17449;SDS011;8842;51.244;7.102;2022-09-09T17:21:02;14.20;;;13.50;;
17449;SDS011;8842;51.244;7.102;2022-09-09T17:31:20;14.20;;;13.50;;
17449;SDS011;8842;51.244;7.102;2022-09-09T17:41:38;14.40;;;13.60;;
17449;SDS011;8842;51.244;7.102;2022-09-09T17:46:42;14.80;;;14.00;;
17449;SDS011;8842;51.244;7.102;2022-09-09T17:57:01;14.67;;;13.87;;
17449;SDS011;8842;51.244;7.102;2022-09-09T18:07:16;14.50;;;13.70;;
17449;SDS011;8842;51.244;7.102;2022-09-09T18:17:32;14.73;;;13.93;;
17449;SDS011;8842;51.244;7.102;2022-09-09T18:27:50;14.80;;;14.00;;
17449;SDS011;8842;51.244;7.102;2022-09-09T18:38:10;14.10;;;13.40;;
17449;SDS011;8842;51.244;7.102;2022-09-09T18:48:28;13.87;;;13.17;;
17449;SDS011;8842;51.244;7.102;2022-09-09T18:58:45;14.07;;;13.37;;
17449;SDS011;8842;51.244;7.102;2022-09-09T19:09:09;14.10;;;13.40;;
17449;SDS011;8842;51.244;7.102;2022-09-09T19:19:26;14.63;;;13.83;;
17449;SDS011;8842;51.244;7.102;2022-09-09T19:29:51;14.80;;;14.00;;
17449;SDS011;8842;51.244;7.102;2022-09-09T19:40:09;14.00;;;13.30;;
17449;SDS011;8842;51.244;7.102;2022-09-09T19:45:13;14.50;;;13.70;;
17449;SDS011;8842;51.244;7.102;2022-09-09T19:55:28;14.63;;;13.83;;
17449;SDS011;8842;51.244;7.102;2022-09-09T20:05:44;15.00;;;14.20;;
17449;SDS011;8842;51.244;7.102;2022-09-09T20:10:51;15.13;;;14.33;;
17449;SDS011;8842;51.244;7.102;2022-09-09T20:16:00;15.00;;;14.20;;
17449;SDS011;8842;51.244;7.102;2022-09-09T20:26:18;14.50;;;13.70;;
17449;SDS011;8842;51.244;7.102;2022-09-09T20:36:36;14.20;;;13.50;;
17449;SDS011;8842;51.244;7.102;2022-09-09T20:41:41;14.60;;;13.80;;
17449;SDS011;8842;51.244;7.102;2022-09-09T20:46:47;14.00;;;13.30;;
17449;SDS011;8842;51.244;7.102;2022-09-09T20:51:54;13.50;;;12.80;;
17449;SDS011;8842;51.244;7.102;2022-09-09T21:02:11;14.30;;;13.60;;
17449;SDS011;8842;51.244;7.102;2022-09-09T21:12:29;14.53;;;13.73;;
17449;SDS011;8842;51.244;7.102;2022-09-09T21:22:47;14.07;;;13.37;;
17449;SDS011;8842;51.244;7.102;2022-09-09T21:33:04;13.10;;;12.40;;
17449;SDS011;8842;51.244;7.102;2022-09-09T21:43:28;12.80;;;12.10;;
17449;SDS011;8842;51.244;7.102;2022-09-09T21:53:43;13.20;;;12.50;;
17449;SDS011;8842;51.244;7.102;2022-09-09T22:04:04;12.90;;;12.20;;
17449;SDS011;8842;51.244;7.102;2022-09-09T22:09:08;12.80;;;12.10;;
17449;SDS011;8842;51.244;7.102;2022-09-09T22:19:26;13.03;;;12.33;;
17449;SDS011;8842;51.244;7.102;2022-09-09T22:29:44;12.57;;;11.97;;
17449;SDS011;8842;51.244;7.102;2022-09-09T22:40:02;13.30;;;12.60;;
17449;SDS011;8842;51.244;7.102;2022-09-09T22:45:08;13.73;;;13.03;;
17449;SDS011;8842;51.244;7.102;2022-09-09T22:55:27;13.20;;;12.50;;
17449;SDS011;8842;51.244;7.102;2022-09-09T23:05:51;13.10;;;12.40;;
17449;SDS011;8842;51.244;7.102;2022-09-09T23:10:59;13.00;;;12.30;;
17449;SDS011;8842;51.244;7.102;2022-09-09T23:21:22;13.20;;;12.50;;
17449;SDS011;8842;51.244;7.102;2022-09-09T23:31:39;12.00;;;11.40;;
17449;SDS011;8842;51.244;7.102;2022-09-09T23:36:45;12.23;;;11.63;;
17449;SDS011;8842;51.244;7.102;2022-09-09T23:41:59;12.50;;;11.90;;
17449;SDS011;8842;51.244;7.102;2022-09-09T23:47:04;12.40;;;11.80;;
17449;SDS011;8842;51.244;7.102;2022-09-09T23:52:09;12.43;;;11.83;;
